createdAt,value
2023-04-15T00:02:01.683Z,74.11
2023-04-15T00:04:28.407Z,73.31
2023-04-15T00:06:55.051Z,74.33
2023-04-15T00:09:21.861Z,74.60
2023-04-15T00:11:50.297Z,74.85
2023-04-15T00:17:22.209Z,75.17
2023-04-15T00:19:48.731Z,75.82
2023-04-15T00:22:33.539Z,76.59
2023-04-15T00:25:00.024Z,77.01
2023-04-15T00:27:26.710Z,77.01
2023-04-15T00:29:53.169Z,76.34
2023-04-15T00:32:19.862Z,76.12
2023-04-15T00:34:46.497Z,77.46
2023-04-15T00:37:13.008Z,76.77
2023-04-15T00:39:39.611Z,76.47
2023-04-15T00:42:06.209Z,77.63
2023-04-15T00:44:33.233Z,77.86
2023-04-15T00:47:00.652Z,78.74
2023-04-15T00:49:27.893Z,78.12
2023-04-15T00:51:54.428Z,78.39
2023-04-15T00:54:21.107Z,77.55
2023-04-15T00:56:50.679Z,77.92
2023-04-15T00:59:17.784Z,78.32
2023-04-15T01:01:45.317Z,78.40
2023-04-15T01:04:12.305Z,78.48
2023-04-15T01:06:39.132Z,78.74
2023-04-15T01:09:05.632Z,79.72
2023-04-15T01:11:32.639Z,80.08
2023-04-15T01:13:59.378Z,79.58
2023-04-15T01:16:29.044Z,78.99
2023-04-15T01:18:55.760Z,78.86
2023-04-15T01:21:22.584Z,79.34
2023-04-15T01:23:49.991Z,78.64
2023-04-15T01:26:16.721Z,78.53
2023-04-15T01:28:43.246Z,79.48
2023-04-15T01:31:12.317Z,79.00
2023-04-15T01:33:40.229Z,78.87
2023-04-15T01:36:07.732Z,78.78
2023-04-15T01:42:37.081Z,80.26
2023-04-15T01:48:26.710Z,79.61
2023-04-15T01:51:51.504Z,78.69
2023-04-15T01:54:20.430Z,79.40
2023-04-15T01:56:46.919Z,78.44
2023-04-15T01:59:13.462Z,79.08
2023-04-15T02:01:39.978Z,78.13
2023-04-15T02:04:06.884Z,78.25
2023-04-15T02:06:33.536Z,77.94
2023-04-15T02:09:00.253Z,79.05
2023-04-15T02:11:27.070Z,79.16
2023-04-15T02:13:53.566Z,78.40
2023-04-15T02:16:20.530Z,78.13
2023-04-15T02:18:47.662Z,78.26
2023-04-15T02:21:14.584Z,77.61
2023-04-15T02:23:41.111Z,76.88
2023-04-15T02:26:07.711Z,76.13
2023-04-15T02:28:34.350Z,76.40
2023-04-15T02:31:00.870Z,76.85
2023-04-15T02:33:27.330Z,75.86
2023-04-15T02:35:53.821Z,75.49
2023-04-15T02:38:20.369Z,76.00
2023-04-15T02:40:49.859Z,75.73
2023-04-15T02:43:16.695Z,75.08
2023-04-15T02:45:51.522Z,75.14
2023-04-15T02:48:18.144Z,75.64
2023-04-15T02:50:45.471Z,76.03
2023-04-15T02:53:18.326Z,76.33
2023-04-15T02:55:44.841Z,75.56
2023-04-15T02:58:14.469Z,76.41
2023-04-15T03:00:40.968Z,77.12
2023-04-15T03:03:13.945Z,77.92
2023-04-15T03:05:40.495Z,77.55
2023-04-15T03:08:06.980Z,78.06
2023-04-15T03:10:33.458Z,78.39
2023-04-15T03:13:00.179Z,77.60
2023-04-15T03:15:26.688Z,77.67
2023-04-15T03:17:53.302Z,77.03
2023-04-15T03:20:19.978Z,77.17
2023-04-15T03:22:46.463Z,76.29
2023-04-15T03:25:13.017Z,77.02
2023-04-15T03:27:39.532Z,78.52
2023-04-15T03:30:06.922Z,78.49
2023-04-15T03:32:35.289Z,78.21
2023-04-15T03:35:01.841Z,79.25
2023-04-15T03:37:28.348Z,78.95
2023-04-15T03:43:48.456Z,78.86
2023-04-15T03:46:15.221Z,79.02
2023-04-15T03:48:42.573Z,78.24
2023-04-15T03:51:09.122Z,77.81
2023-04-15T03:53:37.496Z,77.81
2023-04-15T03:56:04.441Z,77.77
2023-04-15T03:58:40.142Z,77.34
2023-04-15T04:01:06.730Z,77.51
2023-04-15T04:03:33.368Z,77.55
2023-04-15T04:06:00.205Z,78.15
2023-04-15T04:08:26.724Z,77.23
2023-04-15T04:10:53.298Z,77.98
2023-04-15T04:13:19.816Z,78.33
2023-04-15T04:15:46.367Z,79.73
2023-04-15T04:18:12.886Z,80.09
2023-04-15T04:20:39.410Z,79.91
2023-04-15T04:23:05.912Z,79.80
2023-04-15T04:25:32.439Z,80.22
2023-04-15T04:27:59.519Z,79.86
2023-04-15T04:30:26.103Z,79.97
2023-04-15T04:32:52.685Z,80.84
2023-04-15T04:35:22.273Z,80.77
2023-04-15T04:37:48.803Z,79.78
2023-04-15T04:40:20.804Z,80.58
2023-04-15T04:42:47.584Z,80.10
2023-04-15T04:45:14.140Z,81.57
2023-04-15T04:47:52.465Z,81.16
2023-04-15T04:50:22.090Z,80.96
2023-04-15T04:52:48.725Z,81.50
2023-04-15T04:55:22.536Z,81.28
2023-04-15T04:57:49.196Z,81.04
2023-04-15T05:00:35.706Z,80.24
2023-04-15T05:03:02.625Z,80.50
2023-04-15T05:05:34.668Z,80.13
2023-04-15T05:08:01.403Z,80.04
2023-04-15T05:10:27.940Z,80.33
2023-04-15T05:12:54.464Z,80.20
2023-04-15T05:15:21.134Z,79.37
2023-04-15T05:17:47.712Z,79.43
2023-04-15T05:20:14.301Z,78.95
2023-04-15T05:22:40.890Z,78.96
2023-04-15T05:25:07.857Z,78.23
2023-04-15T05:27:34.440Z,78.51
2023-04-15T05:30:00.960Z,79.52
2023-04-15T05:36:12.567Z,79.16
2023-04-15T05:42:17.818Z,77.41
2023-04-15T05:44:51.769Z,76.57
2023-04-15T05:47:18.331Z,76.38
2023-04-15T05:49:44.858Z,76.42
2023-04-15T05:52:11.386Z,75.79
2023-04-15T05:54:38.736Z,74.84
2023-04-15T05:57:05.497Z,74.92
2023-04-15T06:02:47.064Z,75.43
2023-04-15T06:05:13.763Z,75.79
2023-04-15T06:10:48.434Z,77.87
2023-04-15T06:13:15.007Z,78.00
2023-04-15T06:15:41.535Z,78.48
2023-04-15T06:18:12.313Z,79.22
2023-04-15T06:20:38.821Z,80.52
2023-04-15T06:23:05.349Z,81.79
2023-04-15T06:25:31.834Z,82.46
2023-04-15T06:27:58.405Z,84.71
2023-04-15T06:30:24.961Z,85.50
2023-04-15T06:33:53.534Z,86.64
2023-04-15T06:36:20.068Z,86.72
2023-04-15T06:38:46.564Z,87.41
2023-04-15T06:41:22.185Z,87.31
2023-04-15T06:43:48.768Z,86.62
2023-04-15T06:46:16.383Z,86.94
2023-04-15T06:48:42.942Z,86.41
2023-04-15T06:51:15.509Z,87.18
2023-04-15T06:53:42.030Z,86.51
2023-04-15T06:56:08.946Z,87.01
2023-04-15T06:58:35.502Z,86.47
2023-04-15T07:01:34.657Z,86.71
2023-04-15T07:04:01.292Z,85.82
2023-04-15T07:07:06.069Z,85.07
2023-04-15T07:13:45.817Z,84.59
2023-04-15T07:15:56.635Z,86.25
2023-04-15T07:18:23.234Z,86.05
2023-04-15T07:20:49.785Z,85.61
2023-04-15T07:23:16.303Z,83.81
2023-04-15T07:25:45.969Z,85.05
2023-04-15T07:28:12.503Z,85.36
2023-04-15T07:30:39.203Z,85.17
2023-04-15T07:33:05.784Z,85.20
2023-04-15T07:35:35.393Z,84.41
2023-04-15T07:38:01.890Z,85.07
2023-04-15T07:40:31.613Z,85.33
2023-04-15T07:42:58.194Z,84.65
2023-04-15T07:45:24.744Z,83.96
2023-04-15T07:47:55.479Z,83.44
2023-04-15T07:50:22.082Z,82.64
2023-04-15T07:52:51.773Z,83.79
2023-04-15T07:55:18.878Z,83.32
2023-04-15T07:57:45.480Z,83.11
2023-04-15T08:00:12.580Z,82.54
2023-04-15T08:02:40.673Z,81.84
2023-04-15T08:05:07.816Z,82.49
2023-04-15T08:07:34.356Z,82.42
2023-04-15T08:10:00.950Z,82.17
2023-04-15T08:12:36.507Z,81.43
2023-04-15T08:15:03.145Z,81.03
2023-04-15T08:17:29.753Z,81.26
2023-04-15T08:20:06.114Z,80.02
2023-04-15T08:22:32.698Z,79.45
2023-04-15T08:25:05.861Z,79.42
2023-04-15T08:27:33.516Z,79.72
2023-04-15T08:30:03.377Z,79.27
2023-04-15T08:32:53.673Z,78.81
2023-04-15T08:35:20.235Z,78.54
2023-04-15T08:37:56.086Z,77.37
2023-04-15T08:40:43.023Z,77.06
2023-04-15T08:43:12.800Z,77.47
2023-04-15T08:45:39.550Z,75.37
2023-04-15T08:48:07.980Z,74.97
2023-04-15T08:50:34.945Z,74.31
2023-04-15T08:53:21.694Z,74.37
2023-04-15T08:55:57.833Z,74.28
2023-04-15T08:58:25.166Z,73.33
2023-04-15T09:00:51.908Z,73.43
2023-04-15T09:03:18.896Z,71.93
2023-04-15T09:05:45.957Z,73.47
2023-04-15T09:24:03.596Z,77.63
2023-04-15T09:26:37.584Z,77.61
2023-04-15T09:29:09.241Z,78.02
2023-04-15T09:31:39.593Z,78.92
2023-04-15T09:34:11.547Z,77.39
2023-04-15T09:36:57.866Z,77.58
2023-04-15T09:39:34.647Z,78.13
2023-04-15T09:42:05.790Z,77.60
2023-04-15T09:44:35.028Z,76.46
2023-04-15T09:47:01.620Z,75.70
2023-04-15T09:49:28.118Z,76.82
2023-04-15T09:52:05.098Z,76.22
2023-04-15T09:54:37.058Z,75.17
2023-04-15T09:57:18.672Z,75.97
2023-04-15T09:59:45.236Z,76.21
2023-04-15T10:02:12.502Z,76.69
2023-04-15T10:04:41.224Z,75.02
2023-04-15T10:07:14.678Z,75.29
2023-04-15T10:09:41.270Z,75.25
2023-04-15T10:12:15.908Z,74.78
2023-04-15T10:14:43.053Z,74.09
2023-04-15T10:17:11.590Z,72.99
2023-04-15T10:19:38.670Z,75.21
2023-04-15T10:22:07.559Z,73.41
2023-04-15T10:28:57.265Z,74.31
2023-04-15T10:42:37.514Z,72.73
2023-04-15T10:45:16.690Z,73.80
2023-04-15T10:47:43.864Z,73.58
2023-04-15T10:50:10.540Z,73.83
2023-04-15T10:52:43.062Z,73.46
2023-04-15T11:02:56.537Z,72.67
2023-04-15T11:12:34.282Z,72.16
2023-04-15T11:15:25.359Z,71.62
2023-04-15T11:20:44.872Z,70.25
2023-04-15T11:25:39.156Z,70.70
2023-04-15T11:28:06.413Z,69.15
2023-04-15T11:30:37.103Z,68.67
2023-04-15T11:33:06.766Z,68.86
2023-04-15T11:36:33.668Z,70.56
2023-04-15T11:39:00.507Z,69.76
2023-04-15T11:41:35.764Z,69.90
2023-04-15T11:44:17.299Z,69.19
2023-04-15T11:46:45.473Z,69.68
2023-04-15T11:53:08.150Z,66.92
2023-04-15T12:09:42.187Z,65.46
2023-04-15T12:12:08.747Z,67.19
2023-04-15T12:14:37.372Z,67.54
2023-04-15T12:17:16.175Z,64.92
2023-04-15T12:22:18.928Z,65.03
2023-04-15T12:24:45.469Z,65.50
2023-04-15T12:27:21.220Z,65.48
2023-04-15T12:29:47.746Z,65.36
2023-04-15T12:32:16.347Z,65.24
2023-04-15T12:34:53.333Z,64.72
2023-04-15T12:37:19.962Z,63.90
2023-04-15T12:39:47.649Z,64.01
2023-04-15T12:42:49.393Z,64.01
2023-04-15T12:45:15.945Z,64.57
2023-04-15T12:47:42.556Z,64.19
2023-04-15T12:50:09.111Z,63.38
2023-04-15T12:52:35.640Z,65.37
2023-04-15T12:55:02.223Z,64.90
2023-04-15T12:57:29.112Z,64.38
2023-04-15T12:59:55.784Z,63.58
2023-04-15T13:02:38.007Z,65.81
2023-04-15T13:05:05.110Z,64.64
2023-04-15T13:07:31.694Z,65.39
2023-04-15T13:09:58.238Z,64.14
2023-04-15T13:12:24.712Z,65.75
2023-04-15T13:14:54.904Z,65.14
2023-04-15T13:17:21.395Z,65.80
2023-04-15T13:19:50.390Z,65.13
2023-04-15T13:22:16.924Z,64.43
2023-04-15T13:24:43.383Z,64.29
2023-04-15T13:27:09.898Z,64.92
2023-04-15T13:29:36.410Z,66.20
2023-04-15T13:32:02.931Z,66.13
2023-04-15T13:34:44.214Z,64.67
2023-04-15T13:37:13.723Z,67.55
2023-04-15T13:39:40.251Z,66.53
2023-04-15T13:42:06.748Z,66.57
2023-04-15T13:44:33.350Z,66.54
2023-04-15T13:46:59.921Z,65.70
2023-04-15T13:49:26.415Z,64.77
2023-04-15T13:51:52.943Z,62.85
2023-04-15T13:54:19.472Z,62.39
2023-04-15T13:56:45.995Z,63.19
2023-04-15T13:59:17.081Z,62.73
2023-04-15T14:01:46.185Z,63.21
2023-04-15T14:04:15.138Z,62.98
2023-04-15T14:06:43.667Z,63.15
2023-04-15T14:09:10.600Z,62.46
2023-04-15T14:11:39.173Z,63.75
2023-04-15T14:14:13.872Z,62.89
2023-04-15T14:17:02.509Z,62.29
2023-04-15T14:19:31.020Z,63.82
2023-04-15T14:45:57.937Z,63.43
2023-04-15T14:48:24.707Z,65.23
2023-04-15T14:50:51.196Z,62.79
2023-04-15T14:53:19.994Z,63.12
2023-04-15T14:55:46.617Z,63.63
2023-04-15T14:58:13.145Z,63.94
2023-04-15T15:00:39.715Z,63.20
2023-04-15T15:03:06.676Z,64.29
2023-04-15T15:05:44.678Z,63.51
2023-04-15T15:08:17.491Z,64.48
2023-04-15T15:10:49.080Z,64.56
2023-04-15T15:13:19.321Z,64.94
2023-04-15T15:15:46.119Z,65.88
2023-04-15T15:18:12.755Z,65.69
2023-04-15T15:20:39.385Z,64.36
2023-04-15T15:23:06.038Z,64.42
2023-04-15T15:25:41.680Z,65.10
2023-04-15T15:28:43.697Z,64.89
2023-04-15T15:31:13.208Z,65.97
2023-04-15T15:33:39.821Z,67.06
2023-04-15T15:36:06.503Z,67.08
2023-04-15T15:38:33.127Z,65.87
2023-04-15T15:44:27.610Z,65.33
2023-04-15T15:46:54.172Z,67.62
2023-04-15T15:49:20.803Z,67.11
2023-04-15T15:51:47.332Z,68.27
2023-04-15T15:54:13.837Z,68.16
2023-04-15T15:56:40.425Z,67.06
2023-04-15T15:59:07.178Z,67.33
2023-04-15T16:01:34.003Z,66.70
2023-04-15T16:04:00.871Z,66.91
2023-04-15T16:06:27.708Z,67.36
2023-04-15T16:08:56.561Z,67.15
2023-04-15T16:11:23.489Z,67.73
2023-04-15T16:13:50.150Z,68.97
2023-04-15T16:16:16.823Z,66.03
2023-04-15T16:18:43.354Z,67.24
2023-04-15T16:21:09.886Z,67.65
2023-04-15T16:23:36.812Z,66.86
2023-04-15T16:26:03.431Z,68.23
2023-04-15T16:28:29.944Z,67.30
2023-04-15T16:30:56.528Z,68.77
2023-04-15T16:33:35.997Z,70.28
2023-04-15T16:36:02.623Z,71.13
2023-04-15T16:38:32.233Z,70.31
2023-04-15T16:41:10.704Z,69.55
2023-04-15T16:43:39.911Z,69.21
2023-04-15T16:46:17.162Z,70.32
2023-04-15T16:48:57.720Z,71.17
2023-04-15T16:51:28.620Z,70.98
2023-04-15T16:53:55.131Z,71.10
2023-04-15T16:56:21.698Z,70.32
2023-04-15T16:58:48.235Z,70.53
2023-04-15T17:01:17.115Z,70.65
2023-04-15T17:03:43.878Z,70.21
2023-04-15T17:06:10.601Z,70.77
2023-04-15T17:08:37.158Z,71.31
2023-04-15T17:11:05.792Z,72.12
2023-04-15T17:13:32.434Z,70.45
2023-04-15T17:15:59.283Z,69.23
2023-04-15T17:18:25.839Z,70.12
2023-04-15T17:20:52.380Z,71.64
2023-04-15T17:23:18.871Z,71.63
2023-04-15T17:25:45.427Z,71.72
2023-04-15T17:28:21.056Z,72.63
2023-04-15T17:30:47.598Z,72.95
2023-04-15T17:33:58.014Z,72.06
2023-04-15T17:36:00.705Z,72.31
2023-04-15T17:38:29.419Z,72.41
2023-04-15T17:40:55.902Z,72.21
2023-04-15T17:43:22.407Z,72.53
2023-04-15T17:45:48.941Z,72.50
2023-04-15T17:48:18.380Z,72.79
2023-04-15T17:50:44.872Z,72.78
2023-04-15T17:53:11.444Z,73.31
2023-04-15T17:55:37.978Z,73.42
2023-04-15T17:58:04.619Z,73.03
2023-04-15T18:00:32.395Z,72.97
2023-04-15T18:03:00.341Z,73.59
2023-04-15T18:05:27.018Z,73.68
2023-04-15T18:07:53.721Z,73.68
2023-04-15T18:10:20.363Z,74.53
2023-04-15T18:12:47.674Z,74.41
2023-04-15T18:15:14.319Z,73.85
2023-04-15T18:17:43.244Z,76.09
2023-04-15T18:20:17.443Z,76.14
2023-04-15T18:22:47.059Z,76.16
2023-04-15T18:25:13.656Z,76.14
2023-04-15T18:27:40.343Z,75.95
2023-04-15T18:30:08.815Z,76.68
2023-04-15T18:32:35.454Z,76.62
2023-04-15T18:35:02.122Z,76.31
2023-04-15T18:37:28.654Z,76.03
2023-04-15T18:39:55.388Z,75.94
2023-04-15T18:42:33.051Z,76.02
2023-04-15T18:45:00.743Z,76.10
2023-04-15T18:47:27.344Z,75.17
2023-04-15T18:49:54.124Z,75.52
2023-04-15T18:55:53.158Z,74.29
2023-04-15T19:01:45.463Z,73.80
2023-04-15T19:04:12.100Z,73.59
2023-04-15T19:06:38.743Z,74.39
2023-04-15T19:09:05.591Z,74.08
2023-04-15T19:11:32.370Z,74.45
2023-04-15T19:13:58.873Z,74.77
2023-04-15T19:19:11.066Z,74.58
2023-04-15T19:19:38.151Z,74.27
2023-04-15T19:22:05.002Z,73.95
2023-04-15T19:24:33.162Z,74.27
2023-04-15T19:27:00.229Z,73.68
2023-04-15T19:29:26.839Z,73.86
2023-04-15T19:31:55.217Z,73.51
2023-04-15T19:34:21.866Z,72.15
2023-04-15T19:36:48.395Z,72.59
2023-04-15T19:39:14.982Z,73.93
2023-04-15T19:41:41.524Z,75.19
2023-04-15T19:44:08.144Z,73.56
2023-04-15T19:46:34.731Z,75.47
2023-04-15T19:49:01.326Z,75.65
2023-04-15T19:51:27.889Z,75.78
2023-04-15T19:53:54.451Z,75.42
2023-04-15T19:56:21.145Z,76.70
2023-04-15T19:58:47.641Z,75.94
2023-04-15T20:01:14.313Z,76.42
2023-04-15T20:03:41.246Z,77.11
2023-04-15T20:06:07.883Z,77.11
2023-04-15T20:08:34.406Z,77.17
2023-04-15T20:11:00.943Z,78.19
2023-04-15T20:13:27.440Z,77.90
2023-04-15T20:15:54.059Z,77.36
2023-04-15T20:18:20.642Z,79.10
2023-04-15T20:20:47.204Z,79.31
2023-04-15T20:23:13.726Z,79.25
2023-04-15T20:25:40.272Z,79.37
2023-04-15T20:28:06.790Z,80.67
2023-04-15T20:30:33.476Z,80.79
2023-04-15T20:33:00.022Z,81.25
2023-04-15T20:35:26.679Z,79.39
2023-04-15T20:37:53.176Z,78.73
2023-04-15T20:40:22.192Z,78.30
2023-04-15T20:42:49.080Z,78.75
2023-04-15T20:45:15.637Z,78.36
2023-04-15T20:47:42.316Z,80.21
2023-04-15T20:50:09.394Z,81.92
2023-04-15T20:52:36.067Z,83.03
2023-04-15T20:55:02.708Z,83.78
2023-04-15T20:57:31.538Z,82.56
2023-04-15T21:00:05.089Z,82.22
2023-04-15T21:02:34.127Z,81.83
2023-04-15T21:05:00.737Z,82.19
2023-04-15T21:07:30.288Z,81.42
2023-04-15T21:09:59.193Z,81.71
2023-04-15T21:12:25.693Z,81.90
2023-04-15T21:14:52.190Z,81.48
2023-04-15T21:17:18.705Z,80.81
2023-04-15T21:19:45.238Z,82.48
2023-04-15T21:22:11.773Z,81.26
2023-04-15T21:24:38.294Z,81.05
2023-04-15T21:27:04.810Z,81.01
2023-04-15T21:29:37.135Z,80.32
2023-04-15T21:32:06.739Z,79.41
2023-04-15T21:34:33.385Z,79.75
2023-04-15T21:37:03.149Z,80.36
2023-04-15T21:39:29.670Z,82.22
2023-04-15T21:41:56.247Z,83.64
2023-04-15T21:44:22.822Z,83.79
2023-04-15T21:46:49.991Z,84.89
2023-04-15T21:49:16.671Z,83.90
2023-04-15T21:51:43.254Z,83.73
2023-04-15T21:54:10.074Z,84.21
2023-04-15T21:56:39.481Z,83.45
2023-04-15T21:59:18.255Z,82.31
2023-04-15T22:01:44.906Z,80.05
2023-04-15T22:04:11.727Z,79.38
2023-04-15T22:06:38.285Z,78.77
2023-04-15T22:09:04.770Z,78.66
2023-04-15T22:11:36.770Z,77.70
2023-04-15T22:16:43.585Z,78.59
2023-04-15T22:19:10.165Z,79.46
2023-04-15T22:21:36.665Z,78.04
2023-04-15T22:24:32.880Z,79.06
2023-04-15T22:26:49.811Z,78.88
2023-04-15T22:29:16.356Z,78.05
2023-04-15T22:31:42.874Z,78.41
2023-04-15T22:34:18.693Z,77.22
2023-04-15T22:36:45.219Z,76.57
2023-04-15T22:39:11.773Z,76.12
2023-04-15T22:41:38.310Z,76.35
2023-04-15T22:44:04.883Z,75.83
2023-04-15T22:46:31.521Z,76.08
2023-04-15T22:48:58.045Z,76.89
2023-04-15T22:51:25.596Z,76.75
2023-04-15T22:53:52.094Z,76.54
2023-04-15T22:56:19.493Z,77.73
2023-04-15T22:58:47.642Z,78.00
2023-04-15T23:01:14.654Z,78.23
2023-04-15T23:03:55.803Z,77.92
2023-04-15T23:06:45.427Z,77.30
2023-04-15T23:12:40.559Z,77.01
2023-04-15T23:15:07.840Z,78.42
2023-04-15T23:17:34.405Z,78.48
2023-04-15T23:20:00.957Z,78.36
2023-04-15T23:22:27.453Z,79.82
2023-04-15T23:24:53.967Z,79.81
2023-04-15T23:27:22.812Z,80.49
2023-04-15T23:29:49.398Z,79.27
2023-04-15T23:34:45.084Z,81.26
2023-04-15T23:37:11.566Z,80.42
2023-04-15T23:39:38.090Z,80.50
2023-04-15T23:42:04.634Z,81.34
2023-04-15T23:44:31.126Z,80.90
2023-04-15T23:46:57.683Z,82.17
2023-04-15T23:49:24.191Z,82.37
2023-04-15T23:51:50.666Z,81.19
2023-04-15T23:54:17.193Z,82.80
2023-04-15T23:56:43.769Z,82.29
2023-04-15T23:59:10.418Z,82.46
